createdAt,value
2018-06-21T00:00:47.748Z,99.99
2018-06-21T00:01:47.704Z,98.87
2018-06-21T00:03:40.495Z,99.99
2018-06-21T00:04:40.418Z,99.99
2018-06-21T00:06:33.187Z,99.99
2018-06-21T00:07:33.125Z,99.99
2018-06-21T00:09:25.932Z,99.99
2018-06-21T00:10:25.862Z,99.99
2018-06-21T00:12:18.681Z,99.99
2018-06-21T00:13:18.588Z,99.99
2018-06-21T00:15:11.386Z,99.99
2018-06-21T00:16:11.299Z,99.99
2018-06-21T00:18:04.120Z,99.99
2018-06-21T00:19:04.015Z,99.99
2018-06-21T00:20:56.813Z,99.99
2018-06-21T00:21:56.740Z,99.99
2018-06-21T00:23:49.542Z,99.99
2018-06-21T00:24:49.475Z,99.99
2018-06-21T00:26:42.258Z,99.99
2018-06-21T00:27:42.199Z,99.99
2018-06-21T00:29:34.987Z,99.99
2018-06-21T00:30:34.924Z,99.99
2018-06-21T00:32:27.700Z,99.99
2018-06-21T00:33:27.646Z,99.99
2018-06-21T00:35:20.428Z,99.99
2018-06-21T00:36:20.357Z,99.99
2018-06-21T00:38:13.148Z,99.99
2018-06-21T00:39:13.071Z,99.99
2018-06-21T00:41:05.865Z,99.99
2018-06-21T00:42:05.788Z,99.99
2018-06-21T00:43:58.622Z,99.99
2018-06-21T00:44:58.545Z,99.99
2018-06-21T00:46:51.331Z,99.99
2018-06-21T00:47:51.269Z,99.99
2018-06-21T00:49:44.079Z,99.99
2018-06-21T00:50:44.008Z,99.99
2018-06-21T00:52:36.790Z,99.99
2018-06-21T00:53:36.721Z,99.99
2018-06-21T00:55:29.512Z,99.99
2018-06-21T00:56:29.441Z,99.99
2018-06-21T00:58:22.223Z,99.99
2018-06-21T00:59:22.154Z,99.99
2018-06-21T01:01:15.456Z,99.99
2018-06-21T01:02:15.363Z,99.99
2018-06-21T01:04:08.164Z,99.99
2018-06-21T01:05:08.107Z,99.99
2018-06-21T01:07:00.913Z,99.99
2018-06-21T01:08:00.838Z,99.99
2018-06-21T01:09:53.637Z,99.99
2018-06-21T01:10:53.564Z,99.99
2018-06-21T01:12:46.342Z,99.99
2018-06-21T01:13:46.287Z,99.99
2018-06-21T01:15:39.078Z,99.99
2018-06-21T01:16:39.017Z,99.99
2018-06-21T01:18:31.788Z,99.99
2018-06-21T01:19:31.730Z,99.99
2018-06-21T01:21:24.562Z,99.99
2018-06-21T01:22:24.483Z,99.99
2018-06-21T01:24:17.272Z,99.99
2018-06-21T01:25:17.213Z,99.99
2018-06-21T01:27:10.011Z,99.99
2018-06-21T01:28:09.929Z,99.99
2018-06-21T01:30:02.732Z,99.99
2018-06-21T01:31:02.673Z,99.99
2018-06-21T01:32:55.455Z,99.99
2018-06-21T01:33:55.406Z,99.99
2018-06-21T01:35:48.220Z,99.99
2018-06-21T01:36:48.147Z,99.99
2018-06-21T01:38:40.920Z,99.99
2018-06-21T01:39:40.858Z,99.99
2018-06-21T01:41:33.663Z,99.99
2018-06-21T01:42:33.579Z,99.99
2018-06-21T01:44:26.356Z,99.99
2018-06-21T01:45:26.291Z,99.99
2018-06-21T01:47:19.110Z,99.99
2018-06-21T01:48:19.027Z,99.99
2018-06-21T01:50:11.848Z,99.99
2018-06-21T01:51:11.756Z,99.99
2018-06-21T01:53:04.536Z,99.99
2018-06-21T01:54:04.472Z,99.99
2018-06-21T01:55:57.286Z,99.99
2018-06-21T01:56:57.215Z,99.99
2018-06-21T01:58:50.068Z,99.99
2018-06-21T01:59:49.921Z,99.99
2018-06-21T02:01:42.734Z,99.99
2018-06-21T02:02:42.659Z,99.99
2018-06-21T02:04:35.452Z,99.99
2018-06-21T02:05:35.393Z,99.99
2018-06-21T02:07:28.173Z,99.99
2018-06-21T02:08:28.103Z,99.99
2018-06-21T02:10:20.899Z,99.99
2018-06-21T02:11:20.820Z,99.99
2018-06-21T02:13:13.601Z,99.99
2018-06-21T02:14:13.527Z,99.99
2018-06-21T02:16:06.319Z,99.99
2018-06-21T02:17:06.242Z,99.99
2018-06-21T02:18:59.031Z,99.99
2018-06-21T02:19:58.969Z,99.99
2018-06-21T02:21:51.773Z,99.99
2018-06-21T02:22:51.702Z,99.99
2018-06-21T02:24:44.480Z,99.99
2018-06-21T02:25:44.422Z,99.99
2018-06-21T02:27:37.217Z,99.99
2018-06-21T02:28:37.148Z,99.99
2018-06-21T02:30:29.924Z,99.99
2018-06-21T02:31:29.871Z,99.99
2018-06-21T02:33:22.666Z,99.99
2018-06-21T02:34:22.676Z,99.99
2018-06-21T02:36:15.376Z,99.99
2018-06-21T02:37:15.300Z,99.99
2018-06-21T02:39:08.093Z,99.99
2018-06-21T02:40:08.015Z,99.99
2018-06-21T02:42:00.811Z,99.99
2018-06-21T02:43:00.739Z,99.99
2018-06-21T02:44:53.556Z,99.99
2018-06-21T02:45:53.494Z,99.99
2018-06-21T02:47:46.301Z,99.99
2018-06-21T02:48:46.219Z,99.99
2018-06-21T02:50:38.997Z,99.99
2018-06-21T02:51:38.936Z,99.99
2018-06-21T02:53:31.725Z,99.99
2018-06-21T02:54:31.658Z,99.99
2018-06-21T02:56:24.437Z,99.99
2018-06-21T02:57:24.353Z,99.99
2018-06-21T02:59:17.153Z,99.99
2018-06-21T03:00:17.082Z,99.99
2018-06-21T03:02:09.877Z,99.99
2018-06-21T03:03:09.808Z,99.99
2018-06-21T03:05:02.577Z,99.99
2018-06-21T03:06:02.518Z,99.99
2018-06-21T03:07:55.327Z,99.99
2018-06-21T03:08:55.260Z,99.99
2018-06-21T03:10:48.524Z,99.99
2018-06-21T03:11:48.461Z,99.99
2018-06-21T03:13:41.268Z,99.99
2018-06-21T03:14:41.184Z,99.99
2018-06-21T03:16:34.128Z,99.99
2018-06-21T03:17:34.039Z,99.99
2018-06-21T03:19:26.818Z,99.99
2018-06-21T03:20:26.749Z,99.99
2018-06-21T03:22:19.544Z,99.99
2018-06-21T03:23:19.473Z,99.99
2018-06-21T03:25:12.245Z,99.99
2018-06-21T03:26:12.199Z,99.99
2018-06-21T03:28:04.975Z,99.99
2018-06-21T03:29:04.904Z,99.99
2018-06-21T03:30:57.709Z,99.99
2018-06-21T03:31:57.648Z,99.99
2018-06-21T03:33:50.426Z,99.99
2018-06-21T03:34:50.341Z,99.99
2018-06-21T03:36:43.110Z,99.99
2018-06-21T03:37:43.051Z,99.99
2018-06-21T03:39:35.843Z,99.99
2018-06-21T03:40:35.761Z,99.99
2018-06-21T03:42:28.571Z,99.99
2018-06-21T03:43:28.517Z,99.99
2018-06-21T03:45:21.319Z,99.99
2018-06-21T03:46:21.255Z,99.99
2018-06-21T03:48:14.051Z,99.99
2018-06-21T03:49:13.976Z,99.99
2018-06-21T03:51:06.760Z,99.99
2018-06-21T03:52:06.711Z,99.99
2018-06-21T03:53:59.528Z,99.99
2018-06-21T03:54:59.447Z,99.99
2018-06-21T03:56:52.235Z,99.99
2018-06-21T03:57:52.175Z,99.99
2018-06-21T03:59:45.002Z,99.99
2018-06-21T04:00:44.887Z,99.99
2018-06-21T04:02:37.658Z,99.99
2018-06-21T04:03:37.606Z,99.99
2018-06-21T04:05:30.393Z,99.99
2018-06-21T04:06:30.328Z,99.99
2018-06-21T04:08:23.105Z,99.99
2018-06-21T04:09:23.032Z,99.01
2018-06-21T04:11:15.834Z,99.30
2018-06-21T04:12:15.750Z,99.11
2018-06-21T04:14:08.594Z,99.99
2018-06-21T04:15:08.523Z,99.99
2018-06-21T04:17:01.321Z,99.99
2018-06-21T04:18:01.263Z,99.99
2018-06-21T04:19:54.118Z,98.87
2018-06-21T04:20:54.046Z,98.49
2018-06-21T04:22:46.821Z,99.64
2018-06-21T04:23:46.754Z,97.81
2018-06-21T04:25:39.545Z,97.38
2018-06-21T04:26:39.473Z,97.19
2018-06-21T04:28:32.257Z,97.86
2018-06-21T04:29:32.193Z,96.12
2018-06-21T04:31:24.989Z,97.04
2018-06-21T04:32:24.982Z,97.04
2018-06-21T04:34:17.747Z,97.14
2018-06-21T04:35:17.670Z,96.37
2018-06-21T04:37:10.531Z,95.11
2018-06-21T04:38:10.488Z,95.64
2018-06-21T04:40:03.262Z,95.36
2018-06-21T04:41:03.187Z,95.06
2018-06-21T04:42:55.993Z,95.01
2018-06-21T04:43:55.918Z,93.95
2018-06-21T04:45:48.774Z,92.46
2018-06-21T04:46:48.638Z,93.04
2018-06-21T04:48:41.445Z,91.24
2018-06-21T04:49:41.386Z,89.25
2018-06-21T04:51:34.145Z,87.16
2018-06-21T04:52:34.121Z,85.36
2018-06-21T04:54:26.886Z,81.31
2018-06-21T04:55:26.804Z,80.38
2018-06-21T04:57:19.602Z,76.77
2018-06-21T04:58:19.534Z,75.21
2018-06-21T05:00:12.341Z,73.99
2018-06-21T05:01:12.242Z,72.37
2018-06-21T05:03:05.082Z,72.02
2018-06-21T05:04:04.974Z,72.21
2018-06-21T05:05:57.757Z,72.37
2018-06-21T05:06:57.684Z,70.81
2018-06-21T05:08:50.491Z,71.04
2018-06-21T05:09:50.448Z,69.20
2018-06-21T05:11:43.246Z,73.15
2018-06-21T05:12:43.163Z,71.14
2018-06-21T05:14:35.968Z,71.43
2018-06-21T05:15:35.892Z,71.04
2018-06-21T05:17:28.688Z,71.47
2018-06-21T05:18:28.619Z,71.04
2018-06-21T05:20:21.448Z,68.90
2018-06-21T05:21:21.367Z,67.86
2018-06-21T05:23:14.161Z,68.16
2018-06-21T05:24:14.100Z,68.55
2018-06-21T05:26:06.893Z,67.86
2018-06-21T05:27:06.821Z,66.41
2018-06-21T05:28:59.604Z,67.54
2018-06-21T05:29:59.546Z,67.11
2018-06-21T05:31:52.372Z,70.91
2018-06-21T05:32:52.287Z,70.06
2018-06-21T05:34:45.111Z,71.17
2018-06-21T05:35:45.038Z,70.45
2018-06-21T05:37:37.817Z,73.78
2018-06-21T05:38:37.780Z,74.65
2018-06-21T05:40:30.541Z,73.55
2018-06-21T05:41:30.485Z,75.74
2018-06-21T05:43:23.266Z,77.65
2018-06-21T05:44:23.210Z,78.36
2018-06-21T05:46:15.997Z,76.85
2018-06-21T05:47:15.925Z,76.27
2018-06-21T05:49:08.710Z,76.29
2018-06-21T05:50:08.708Z,76.29
2018-06-21T05:52:01.449Z,79.16
2018-06-21T05:53:01.380Z,76.85
2018-06-21T05:54:54.172Z,73.88
2018-06-21T05:55:54.105Z,73.58
2018-06-21T05:57:46.986Z,72.08
2018-06-21T05:58:46.966Z,69.77
2018-06-21T06:00:39.723Z,68.38
2018-06-21T06:01:39.621Z,69.78
2018-06-21T06:03:32.398Z,65.26
2018-06-21T06:04:32.371Z,65.95
2018-06-21T06:06:25.157Z,66.93
2018-06-21T06:07:25.079Z,66.69
2018-06-21T06:09:17.887Z,67.24
2018-06-21T06:10:17.794Z,68.12
2018-06-21T06:12:10.616Z,71.68
2018-06-21T06:13:10.522Z,71.11
2018-06-21T06:15:03.306Z,65.72
2018-06-21T06:16:03.255Z,66.89
2018-06-21T06:17:56.051Z,68.35
2018-06-21T06:18:55.985Z,68.48
2018-06-21T06:20:48.799Z,68.38
2018-06-21T06:21:48.727Z,66.63
2018-06-21T06:23:41.526Z,65.88
2018-06-21T06:24:41.467Z,66.44
2018-06-21T06:26:34.297Z,68.51
2018-06-21T06:27:34.220Z,71.30
2018-06-21T06:29:27.022Z,69.48
2018-06-21T06:30:26.953Z,67.05
2018-06-21T06:32:19.778Z,68.45
2018-06-21T06:33:19.697Z,70.26
2018-06-21T06:35:12.527Z,68.90
2018-06-21T06:36:12.471Z,70.09
2018-06-21T06:38:05.276Z,70.12
2018-06-21T06:39:05.204Z,70.10
2018-06-21T06:40:58.026Z,68.90
2018-06-21T06:41:57.936Z,67.83
2018-06-21T06:43:50.747Z,65.85
2018-06-21T06:44:50.704Z,64.36
2018-06-21T06:46:43.525Z,64.42
2018-06-21T06:47:43.426Z,64.51
2018-06-21T06:49:36.207Z,65.53
2018-06-21T06:50:36.155Z,65.30
2018-06-21T06:52:29.026Z,65.23
2018-06-21T06:53:28.884Z,65.40
2018-06-21T06:55:21.679Z,66.34
2018-06-21T06:56:21.622Z,68.64
2018-06-21T06:58:14.415Z,67.05
2018-06-21T06:59:14.348Z,68.41
2018-06-21T07:01:07.146Z,68.60
2018-06-21T07:02:07.096Z,69.42
2018-06-21T07:03:59.915Z,67.93
2018-06-21T07:04:59.851Z,67.93
2018-06-21T07:06:52.698Z,66.37
2018-06-21T07:07:52.598Z,65.53
2018-06-21T07:09:45.407Z,62.76
2018-06-21T07:10:45.322Z,62.92
2018-06-21T07:12:38.116Z,60.22
2018-06-21T07:13:38.061Z,60.35
2018-06-21T07:15:30.837Z,59.31
2018-06-21T07:16:30.790Z,61.43
2018-06-21T07:18:23.584Z,61.76
2018-06-21T07:19:23.502Z,61.99
2018-06-21T07:21:16.323Z,61.11
2018-06-21T07:22:16.275Z,61.99
2018-06-21T07:24:09.111Z,64.52
2018-06-21T07:25:09.009Z,64.39
2018-06-21T07:27:02.293Z,61.57
2018-06-21T07:28:02.206Z,63.74
2018-06-21T07:29:54.995Z,64.42
2018-06-21T07:30:54.935Z,64.69
2018-06-21T07:32:47.761Z,62.02
2018-06-21T07:33:47.694Z,61.51
2018-06-21T07:35:40.464Z,63.65
2018-06-21T07:36:40.412Z,65.50
2018-06-21T07:38:33.214Z,65.50
2018-06-21T07:39:33.145Z,64.69
2018-06-21T07:41:25.926Z,66.31
2018-06-21T07:42:25.865Z,65.63
2018-06-21T07:44:18.688Z,65.17
2018-06-21T07:45:18.615Z,65.40
2018-06-21T07:47:11.406Z,62.47
2018-06-21T07:48:11.357Z,63.80
2018-06-21T07:50:04.156Z,61.40
2018-06-21T07:51:04.086Z,61.73
2018-06-21T07:52:56.920Z,63.65
2018-06-21T07:53:56.856Z,63.81
2018-06-21T07:55:49.636Z,64.26
2018-06-21T07:56:49.585Z,62.12
2018-06-21T07:58:42.366Z,62.99
2018-06-21T07:59:42.317Z,63.58
2018-06-21T08:01:35.091Z,62.74
2018-06-21T08:02:35.034Z,64.10
2018-06-21T08:04:27.870Z,65.14
2018-06-21T08:05:27.808Z,65.82
2018-06-21T08:07:20.606Z,67.44
2018-06-21T08:08:20.542Z,69.48
2018-06-21T08:10:13.368Z,68.38
2018-06-21T08:11:13.288Z,68.96
2018-06-21T08:13:06.077Z,67.05
2018-06-21T08:14:06.017Z,66.76
2018-06-21T08:15:58.794Z,66.17
2018-06-21T08:16:58.732Z,66.86
2018-06-21T08:18:51.577Z,65.72
2018-06-21T08:19:51.507Z,65.53
2018-06-21T08:21:44.295Z,64.75
2018-06-21T08:22:44.231Z,65.72
2018-06-21T08:24:37.058Z,68.44
2018-06-21T08:25:36.957Z,64.85
2018-06-21T08:27:29.739Z,64.95
2018-06-21T08:28:29.684Z,66.89
2018-06-21T08:30:22.487Z,66.69
2018-06-21T08:31:22.416Z,64.26
2018-06-21T08:33:15.224Z,67.28
2018-06-21T08:34:15.148Z,67.38
2018-06-21T08:36:07.919Z,66.66
2018-06-21T08:37:07.863Z,69.29
2018-06-21T08:39:00.685Z,67.80
2018-06-21T08:40:00.603Z,70.42
2018-06-21T08:41:53.404Z,70.22
2018-06-21T08:42:53.322Z,70.06
2018-06-21T08:44:46.332Z,69.45
2018-06-21T08:45:46.331Z,70.03
2018-06-21T08:47:39.090Z,70.90
2018-06-21T08:48:39.030Z,70.57
2018-06-21T08:50:31.844Z,72.61
2018-06-21T08:51:31.775Z,71.84
2018-06-21T08:53:24.640Z,70.48
2018-06-21T08:54:24.568Z,70.32
2018-06-21T08:56:17.394Z,69.29
2018-06-21T08:57:17.310Z,65.82
2018-06-21T08:59:10.170Z,62.66
2018-06-21T09:00:10.109Z,61.33
2018-06-21T09:02:02.893Z,61.50
2018-06-21T09:03:02.841Z,63.77
2018-06-21T09:04:55.658Z,61.95
2018-06-21T09:05:55.597Z,60.36
2018-06-21T09:07:48.385Z,59.80
2018-06-21T09:08:48.321Z,61.33
2018-06-21T09:10:41.119Z,58.66
2018-06-21T09:11:41.046Z,59.57
2018-06-21T09:13:33.831Z,58.42
2018-06-21T09:14:33.770Z,57.18
2018-06-21T09:16:26.564Z,58.16
2018-06-21T09:17:26.500Z,57.09
2018-06-21T09:19:19.302Z,54.96
2018-06-21T09:20:19.236Z,56.20
2018-06-21T09:22:12.019Z,56.79
2018-06-21T09:23:11.956Z,56.50
2018-06-21T09:25:04.830Z,55.62
2018-06-21T09:26:04.696Z,55.03
2018-06-21T09:27:57.482Z,55.65
2018-06-21T09:28:57.435Z,55.67
2018-06-21T09:30:50.232Z,54.60
2018-06-21T09:31:50.157Z,53.76
2018-06-21T09:33:42.942Z,55.66
2018-06-21T09:34:42.908Z,56.05
2018-06-21T09:36:35.714Z,55.47
2018-06-21T09:37:35.621Z,56.08
2018-06-21T09:39:28.409Z,56.15
2018-06-21T09:40:28.360Z,55.54
2018-06-21T09:42:21.153Z,56.97
2018-06-21T09:43:21.117Z,55.80
2018-06-21T09:45:13.897Z,55.44
2018-06-21T09:46:13.833Z,53.95
2018-06-21T09:48:06.631Z,56.10
2018-06-21T09:49:06.571Z,55.44
2018-06-21T09:50:59.380Z,56.15
2018-06-21T09:51:59.310Z,55.47
2018-06-21T09:53:52.183Z,54.20
2018-06-21T09:54:52.081Z,55.63
2018-06-21T09:56:44.916Z,55.54
2018-06-21T09:57:44.859Z,56.20
2018-06-21T09:59:37.663Z,54.87
2018-06-21T10:00:37.592Z,56.70
2018-06-21T10:02:30.409Z,58.61
2018-06-21T10:03:30.339Z,57.90
2018-06-21T10:05:23.168Z,57.87
2018-06-21T10:06:23.093Z,58.36
2018-06-21T10:08:15.907Z,59.66
2018-06-21T10:09:15.855Z,60.63
2018-06-21T10:11:08.632Z,58.97
2018-06-21T10:12:08.560Z,58.07
2018-06-21T10:14:01.383Z,60.08
2018-06-21T10:15:01.321Z,60.38
2018-06-21T10:16:54.125Z,61.51
2018-06-21T10:17:54.053Z,61.80
2018-06-21T10:19:46.878Z,62.00
2018-06-21T10:20:46.783Z,63.65
2018-06-21T10:22:39.587Z,62.35
2018-06-21T10:23:39.514Z,62.55
2018-06-21T10:25:32.327Z,63.01
2018-06-21T10:26:32.277Z,62.81
2018-06-21T10:28:25.091Z,63.88
2018-06-21T10:29:25.017Z,64.26
2018-06-21T10:31:17.819Z,64.33
2018-06-21T10:32:17.748Z,64.40
2018-06-21T10:34:10.526Z,66.08
2018-06-21T10:35:10.610Z,68.08
2018-06-21T10:37:03.267Z,72.46
2018-06-21T10:38:03.200Z,75.71
2018-06-21T10:39:56.007Z,79.50
2018-06-21T10:40:55.938Z,80.82
2018-06-21T10:42:48.736Z,80.97
2018-06-21T10:43:48.676Z,81.35
2018-06-21T10:45:41.468Z,81.41
2018-06-21T10:46:41.405Z,82.67
2018-06-21T10:48:34.207Z,82.09
2018-06-21T10:49:34.139Z,82.48
2018-06-21T10:51:26.984Z,81.99
2018-06-21T10:52:26.886Z,82.18
2018-06-21T10:54:19.685Z,82.28
2018-06-21T10:55:19.613Z,83.25
2018-06-21T10:57:12.410Z,83.50
2018-06-21T10:58:12.344Z,83.88
2018-06-21T11:00:05.125Z,84.32
2018-06-21T11:01:05.068Z,84.42
2018-06-21T11:02:57.854Z,84.46
2018-06-21T11:03:57.776Z,84.61
2018-06-21T11:05:50.580Z,85.72
2018-06-21T11:06:50.513Z,85.34
2018-06-21T11:08:43.348Z,86.01
2018-06-21T11:09:43.243Z,87.03
2018-06-21T11:11:36.008Z,86.07
2018-06-21T11:12:35.950Z,87.76
2018-06-21T11:14:28.749Z,87.56
2018-06-21T11:15:28.665Z,87.76
2018-06-21T11:17:21.528Z,88.67
2018-06-21T11:18:21.427Z,88.19
2018-06-21T11:20:14.306Z,87.81
2018-06-21T11:21:14.214Z,87.57
2018-06-21T11:23:07.013Z,87.23
2018-06-21T11:24:06.939Z,88.39
2018-06-21T11:25:59.724Z,87.71
2018-06-21T11:26:59.662Z,87.81
2018-06-21T11:28:52.498Z,86.56
2018-06-21T11:29:52.384Z,87.33
2018-06-21T11:31:45.168Z,87.13
2018-06-21T11:32:45.106Z,87.33
2018-06-21T11:34:37.948Z,86.08
2018-06-21T11:35:37.842Z,85.11
2018-06-21T11:37:30.636Z,85.54
2018-06-21T11:38:30.556Z,85.44
2018-06-21T11:40:23.359Z,85.93
2018-06-21T11:41:23.266Z,85.40
2018-06-21T11:43:16.090Z,85.98
2018-06-21T11:44:16.015Z,85.31
2018-06-21T11:46:08.867Z,84.54
2018-06-21T11:47:08.807Z,84.06
2018-06-21T11:49:01.609Z,83.72
2018-06-21T11:50:01.532Z,84.10
2018-06-21T11:51:54.307Z,84.29
2018-06-21T11:52:54.241Z,84.58
2018-06-21T11:54:47.047Z,84.73
2018-06-21T11:55:46.983Z,84.44
2018-06-21T11:57:39.744Z,84.83
2018-06-21T11:58:39.679Z,85.02
2018-06-21T12:00:32.471Z,85.31
2018-06-21T12:01:32.401Z,85.88
2018-06-21T12:03:25.213Z,86.61
2018-06-21T12:04:25.164Z,87.19
2018-06-21T12:06:17.904Z,86.80
2018-06-21T12:07:17.824Z,87.48
2018-06-21T12:09:10.621Z,88.20
2018-06-21T12:10:10.551Z,88.87
2018-06-21T12:12:03.358Z,90.80
2018-06-21T12:13:03.290Z,91.75
2018-06-21T12:14:56.087Z,93.34
2018-06-21T12:15:55.998Z,94.49
2018-06-21T12:17:48.781Z,96.56
2018-06-21T12:18:48.709Z,97.91
2018-06-21T12:20:41.529Z,99.99
2018-06-21T12:21:41.429Z,99.99
2018-06-21T12:23:34.308Z,99.99
2018-06-21T12:24:34.237Z,99.99
2018-06-21T12:26:27.035Z,99.99
2018-06-21T12:27:26.941Z,99.99
2018-06-21T12:29:19.726Z,99.99
2018-06-21T12:30:19.650Z,99.99
2018-06-21T12:32:12.506Z,99.99
2018-06-21T12:33:12.437Z,99.99
2018-06-21T12:35:05.240Z,99.99
2018-06-21T12:36:05.152Z,99.99
2018-06-21T12:37:57.954Z,99.99
2018-06-21T12:38:57.865Z,99.99
2018-06-21T12:40:50.712Z,99.99
2018-06-21T12:41:50.608Z,99.99
2018-06-21T12:43:43.505Z,99.99
2018-06-21T12:44:43.318Z,99.99
2018-06-21T12:46:36.104Z,99.99
2018-06-21T12:47:36.019Z,99.99
2018-06-21T12:49:28.838Z,99.99
2018-06-21T12:50:28.830Z,99.99
2018-06-21T12:52:21.544Z,99.99
2018-06-21T12:53:21.483Z,99.99
2018-06-21T12:55:14.283Z,99.99
2018-06-21T12:56:14.199Z,99.99
2018-06-21T12:58:07.003Z,99.99
2018-06-21T12:59:06.906Z,99.99
2018-06-21T13:00:59.718Z,99.99
2018-06-21T13:01:59.624Z,99.99
2018-06-21T13:03:52.391Z,99.99
2018-06-21T13:04:52.321Z,99.99
2018-06-21T13:06:45.131Z,99.99
2018-06-21T13:07:45.061Z,99.99
2018-06-21T13:09:37.853Z,99.99
2018-06-21T13:10:37.777Z,99.99
2018-06-21T13:12:30.536Z,99.99
2018-06-21T13:13:30.471Z,99.99
2018-06-21T13:15:23.315Z,99.99
2018-06-21T13:16:23.183Z,99.99
2018-06-21T13:18:15.958Z,99.99
2018-06-21T13:19:15.890Z,99.99
2018-06-21T13:21:08.665Z,99.99
2018-06-21T13:22:08.595Z,99.99
2018-06-21T13:24:01.404Z,99.99
2018-06-21T13:25:01.325Z,99.99
2018-06-21T13:26:54.130Z,99.99
2018-06-21T13:27:54.059Z,99.63
2018-06-21T13:29:46.874Z,99.99
2018-06-21T13:30:46.768Z,98.68
2018-06-21T13:32:39.547Z,97.33
2018-06-21T13:33:39.469Z,99.25
2018-06-21T13:35:32.259Z,99.99
2018-06-21T13:36:32.182Z,99.30
2018-06-21T13:38:24.987Z,98.58
2018-06-21T13:39:24.915Z,98.24
2018-06-21T13:41:17.717Z,99.58
2018-06-21T13:42:17.667Z,98.34
2018-06-21T13:44:10.511Z,98.19
2018-06-21T13:45:10.443Z,99.05
2018-06-21T13:47:03.257Z,98.33
2018-06-21T13:48:03.125Z,98.82
2018-06-21T13:49:55.906Z,99.99
2018-06-21T13:50:55.853Z,99.99
2018-06-21T13:52:48.645Z,99.99
2018-06-21T13:53:48.568Z,99.99
2018-06-21T13:55:41.414Z,99.99
2018-06-21T13:56:41.318Z,99.99
2018-06-21T13:58:34.115Z,99.99
2018-06-21T13:59:34.049Z,97.14
2018-06-21T14:01:26.831Z,98.38
2018-06-21T14:02:26.752Z,97.42
2018-06-21T14:04:19.635Z,97.33
2018-06-21T14:05:19.565Z,97.09
2018-06-21T14:07:12.382Z,94.12
2018-06-21T14:08:12.309Z,95.55
2018-06-21T14:10:05.076Z,92.19
2018-06-21T14:11:05.029Z,92.96
2018-06-21T14:12:57.873Z,92.10
2018-06-21T14:13:57.734Z,91.72
2018-06-21T14:15:50.556Z,91.91
2018-06-21T14:16:50.462Z,91.81
2018-06-21T14:18:43.291Z,88.41
2018-06-21T14:19:43.210Z,87.64
2018-06-21T14:21:35.992Z,86.97
2018-06-21T14:22:35.934Z,86.21
2018-06-21T14:24:28.720Z,87.41
2018-06-21T14:25:28.640Z,88.31
2018-06-21T14:27:21.464Z,86.54
2018-06-21T14:28:21.368Z,86.74
2018-06-21T14:30:14.143Z,87.74
2018-06-21T14:31:14.082Z,88.41
2018-06-21T14:33:06.901Z,86.49
2018-06-21T14:34:06.787Z,86.97
2018-06-21T14:35:59.576Z,85.67
2018-06-21T14:36:59.508Z,85.28
2018-06-21T14:38:52.330Z,85.62
2018-06-21T14:39:52.249Z,84.37
2018-06-21T14:41:45.006Z,85.52
2018-06-21T14:42:44.937Z,84.56
2018-06-21T14:44:37.727Z,84.37
2018-06-21T14:45:37.663Z,83.70
2018-06-21T14:47:30.440Z,83.41
2018-06-21T14:48:30.378Z,83.22
2018-06-21T14:50:23.217Z,83.08
2018-06-21T14:51:23.111Z,83.60
2018-06-21T14:53:15.946Z,82.89
2018-06-21T14:54:15.859Z,82.03
2018-06-21T14:56:08.620Z,82.60
2018-06-21T14:57:08.618Z,82.79
2018-06-21T14:59:01.380Z,79.91
2018-06-21T15:00:01.286Z,79.24
2018-06-21T15:01:54.066Z,81.16
2018-06-21T15:02:53.997Z,79.72
2018-06-21T15:04:46.785Z,80.87
2018-06-21T15:05:46.725Z,80.82
2018-06-21T15:07:39.471Z,78.86
2018-06-21T15:08:39.407Z,79.19
2018-06-21T15:10:32.197Z,78.03
2018-06-21T15:11:32.120Z,79.76
2018-06-21T15:13:24.930Z,78.32
2018-06-21T15:14:24.855Z,77.26
2018-06-21T15:16:17.598Z,78.03
2018-06-21T15:17:17.537Z,77.36
2018-06-21T15:19:10.367Z,76.21
2018-06-21T15:20:10.362Z,76.69
2018-06-21T15:22:03.202Z,77.26
2018-06-21T15:23:03.100Z,77.17
2018-06-21T15:24:55.895Z,76.12
2018-06-21T15:25:55.816Z,75.63
2018-06-21T15:27:48.598Z,75.82
2018-06-21T15:28:48.524Z,78.52
2018-06-21T15:30:41.343Z,78.17
2018-06-21T15:31:41.264Z,78.17
2018-06-21T15:33:34.047Z,80.57
2018-06-21T15:34:33.985Z,81.53
2018-06-21T15:36:26.781Z,77.88
2018-06-21T15:37:26.701Z,77.50
2018-06-21T15:39:19.498Z,78.03
2018-06-21T15:40:19.415Z,76.02
2018-06-21T15:42:12.195Z,77.75
2018-06-21T15:43:12.130Z,77.40
2018-06-21T15:45:04.951Z,76.02
2018-06-21T15:46:04.875Z,75.15
2018-06-21T15:47:57.666Z,74.87
2018-06-21T15:48:57.611Z,76.59
2018-06-21T15:50:50.400Z,77.56
2018-06-21T15:51:50.320Z,76.73
2018-06-21T15:53:43.092Z,76.34
2018-06-21T15:54:43.028Z,75.77
2018-06-21T15:56:35.824Z,72.02
2018-06-21T15:57:35.744Z,73.18
2018-06-21T15:59:28.526Z,72.02
2018-06-21T16:00:28.505Z,72.41
2018-06-21T16:02:21.228Z,71.06
2018-06-21T16:03:21.165Z,71.73
2018-06-21T16:05:13.991Z,72.31
2018-06-21T16:06:13.886Z,71.45
2018-06-21T16:08:06.718Z,70.58
2018-06-21T16:09:06.624Z,70.87
2018-06-21T16:10:59.435Z,70.78
2018-06-21T16:11:59.341Z,70.97
2018-06-21T16:13:52.128Z,70.29
2018-06-21T16:14:52.162Z,68.47
2018-06-21T16:16:44.869Z,69.34
2018-06-21T16:17:44.775Z,69.53
2018-06-21T16:19:37.563Z,69.14
2018-06-21T16:20:37.501Z,68.66
2018-06-21T16:22:30.295Z,68.53
2018-06-21T16:23:30.220Z,69.68
2018-06-21T16:25:23.013Z,69.91
2018-06-21T16:26:22.927Z,69.62
2018-06-21T16:28:15.746Z,68.85
2018-06-21T16:29:15.650Z,69.14
2018-06-21T16:31:08.480Z,67.13
2018-06-21T16:32:08.392Z,67.51
2018-06-21T16:34:01.147Z,69.34
2018-06-21T16:35:01.083Z,67.61
2018-06-21T16:36:53.865Z,69.43
2018-06-21T16:37:53.792Z,69.05
2018-06-21T16:39:46.569Z,69.34
2018-06-21T16:40:46.520Z,69.14
2018-06-21T16:42:39.287Z,69.81
2018-06-21T16:43:39.216Z,69.62
2018-06-21T16:45:32.017Z,66.07
2018-06-21T16:46:31.943Z,66.93
2018-06-21T16:48:24.715Z,67.80
2018-06-21T16:49:24.648Z,65.78
2018-06-21T16:51:17.442Z,67.13
2018-06-21T16:52:17.386Z,66.46
2018-06-21T16:54:10.134Z,66.07
2018-06-21T16:55:10.072Z,67.86
2018-06-21T16:57:02.876Z,68.34
2018-06-21T16:58:02.814Z,68.15
2018-06-21T16:59:55.592Z,68.15
2018-06-21T17:00:55.583Z,68.05
2018-06-21T17:02:48.297Z,67.29
2018-06-21T17:03:48.205Z,66.61
2018-06-21T17:05:40.972Z,64.98
2018-06-21T17:06:40.907Z,66.23
2018-06-21T17:08:33.726Z,65.08
2018-06-21T17:09:33.653Z,64.89
2018-06-21T17:11:26.463Z,64.31
2018-06-21T17:12:26.380Z,64.50
2018-06-21T17:14:19.260Z,63.79
2018-06-21T17:15:19.113Z,64.28
2018-06-21T17:17:11.905Z,65.43
2018-06-21T17:18:11.854Z,64.85
2018-06-21T17:20:04.609Z,64.56
2018-06-21T17:21:04.546Z,64.56
2018-06-21T17:22:57.407Z,64.66
2018-06-21T17:23:57.293Z,64.76
2018-06-21T17:25:50.119Z,66.39
2018-06-21T17:26:50.014Z,64.95
2018-06-21T17:28:42.811Z,64.95
2018-06-21T17:29:42.741Z,65.72
2018-06-21T17:31:35.534Z,66.77
2018-06-21T17:32:35.515Z,65.43
2018-06-21T17:34:28.225Z,65.23
2018-06-21T17:35:28.168Z,65.43
2018-06-21T17:37:20.955Z,68.30
2018-06-21T17:38:20.891Z,67.63
2018-06-21T17:40:13.675Z,68.02
2018-06-21T17:41:13.612Z,69.74
2018-06-21T17:43:06.479Z,69.36
2018-06-21T17:44:06.319Z,68.59
2018-06-21T17:45:59.126Z,69.56
2018-06-21T17:46:59.050Z,70.23
2018-06-21T17:48:51.883Z,70.51
2018-06-21T17:49:51.808Z,70.03
2018-06-21T17:51:44.621Z,69.84
2018-06-21T17:52:44.561Z,69.46
2018-06-21T17:54:37.344Z,69.36
2018-06-21T17:55:37.261Z,69.36
2018-06-21T17:57:30.043Z,68.59
2018-06-21T17:58:29.964Z,68.69
2018-06-21T18:00:22.781Z,69.46
2018-06-21T18:01:22.718Z,68.12
2018-06-21T18:03:15.500Z,68.95
2018-06-21T18:04:15.430Z,68.95
2018-06-21T18:06:08.229Z,69.13
2018-06-21T18:07:08.161Z,69.65
2018-06-21T18:09:00.952Z,68.66
2018-06-21T18:10:00.879Z,68.85
2018-06-21T18:11:53.648Z,68.37
2018-06-21T18:12:53.580Z,68.75
2018-06-21T18:14:46.364Z,68.66
2018-06-21T18:15:46.291Z,68.85
2018-06-21T18:17:39.108Z,69.33
2018-06-21T18:18:39.010Z,69.62
2018-06-21T18:20:31.820Z,69.90
2018-06-21T18:21:31.733Z,69.13
2018-06-21T18:23:24.537Z,69.01
2018-06-21T18:24:24.511Z,69.58
2018-06-21T18:26:17.264Z,70.35
2018-06-21T18:27:17.189Z,70.06
2018-06-21T18:29:10.028Z,70.25
2018-06-21T18:30:09.884Z,70.92
2018-06-21T18:32:02.688Z,71.11